Delden, Netherlands
Current Conditions -  °F | °C
As of 5:25 PM on Wednesday 22 Oct 2014 (Local Time) from EHDL Reporting Station
Overcast Overcast  
Wind Chill: 52°   Ceiling: 5800
Heat Index: 52°   Visibility: 6mi
Dew Point: 45°   Wind: 14mph
Humidity: 76%   Direction: 310°NW
Pressure: 30.09"   Gusts: NA
Location:  52.26°N, 6.71°E
Report Text: EHDL 221525Z AUTO 31012KT 9999 OVC058 11/07 Q1019 BLU
Loading
Personal Weather Stations






























Interactive Weather Map
Tropical Storm Tracking
New forecast layout! Learn more

10-Day Weather Forecast

Advertisements
Track Severe Weather on mobile